Historyczne dane pomiarowe

Dodano dane terminowe – wersja testowa.

Dane z okresu 1951-2019

Wersja bazy: 1.34 [2019-03-16, lista zmian], aktualizacja planowana na 2019-04-15

Dane meteo z obszaru Polski uzyskane na podstawie danych udostępnionych przez Instytut Meteorologii i Gospodarki Wodnej – Państwowy Instytut Badawczy.

 

Wybierz Datę:    

       

TemperaturaWilgotnośćWiatrCiśnienieOpadyŚniegCzas trwania zjawisk
 Stacja t tx tn tng RH VA  wxwx mslp ppp RRR   cm mm wxwxwxwxwxwxwx
1961-08-14 14.2 19.0 6.1--- 2.3 2.3---- 0.0------------
1961-08-13 14.1 18.0 12.1--- 4.7 2.7---- 0.0------------
1961-08-12 17.4 21.7 14.2--- 7.3 1.3---- 1.9------------
1961-08-11 17.9 21.5 15.7--- 8.0 1.7---- 4.4------------
1961-08-10 18.3 23.5 12.0--- 7.3 2.3---- 7.0------------
1961-08-09 19.0 27.0 12.9--- 4.3 1.7---- 0.7------------
1961-08-08 16.6 20.0 10.3--- 5.0 3.0---- 0.0------------
1961-08-07 16.8 20.5 15.2--- 8.0 1.7---- 1.1------------
1961-08-06 20.5 28.5 12.7--- 3.0 2.0---- 11.5------------
1961-08-05 16.0 22.5 13.2--- 3.7 3.0---- 0.0------------
1961-08-04 15.7 19.0 8.1--- 5.3 2.0---- 0.3------------
1961-08-03 15.1 21.0 12.3--- 7.3 1.7---- 1.3------------
1961-08-02 17.8 24.0 9.3--- 4.7 1.7---- 0.1------------
1961-08-01 13.4 14.9 11.8--- 8.0 2.7---- 1.1------------
1961-07-31 14.5 17.9 12.3--- 7.0 2.3---- 4.5------------
1961-07-30 13.3 16.4 10.4--- 8.0 2.3---- 16.1------------
1961-07-29 13.9 18.4 12.3--- 7.3 2.7---- 0.1------------
1961-07-28 15.6 18.4 12.3--- 8.0 1.7---- 22.5------------
1961-07-27 18.7 23.0 13.4--- 7.7 2.0---- 0.0------------
1961-07-26 13.9 17.9 11.3--- 8.0 2.3---- 1.5------------
1961-07-25 14.2 18.9 8.2--- 7.0 4.7---- 0.1------------
1961-07-24 14.6 19.5 10.3--- 6.3 3.0---- 10.0------------
1961-07-23 14.8 17.4 12.4--- 8.0 2.3---- 0.1------------
1961-07-22 14.3 17.9 11.8--- 8.0 2.7---- 2.3------------
1961-07-21 15.2 19.4 8.7--- 7.7 2.7---- 3.3------------
1961-07-20 15.6 23.0 8.2--- 3.3 2.0---- 0.0------------
1961-07-19 15.0 22.0 9.3--- 2.3 1.3---- 0.0------------
1961-07-18 13.9 18.4 10.7--- 7.7 1.3---- 0.4------------
1961-07-17 15.7 21.5 8.1--- 6.3 1.7---- 2.7------------
1961-07-16 13.1 20.5 7.4--- 7.3 2.3---- 5.2------------
1961-07-15 16.4 22.5 7.0--- 4.3 2.0---- 4.1------------
1961-07-14 14.7 23.5 12.3--- 7.7 3.0---- 0.0------------
1961-07-13 22.1 28.0 9.6--- 5.3 2.7---- 0.0------------
1961-07-12 16.3 21.0 9.7--- 4.7 1.3---- 0.0------------
1961-07-11 13.9 20.5 9.5--- 6.0 3.3---- 7.2------------
1961-07-10 14.0 18.9 12.1--- 7.0 2.7---- 2.1------------
1961-07-09 16.3 23.7 8.6--- 5.0 1.7---- 0.9------------
1961-07-08 13.8 18.4 8.6--- 5.7 1.7---- 0.5------------
1961-07-07 13.1 17.6 7.2--- 5.7 3.3---- 0.0------------
1961-07-06 12.7 17.4 5.2--- 2.7 2.0---- 0.0------------
1961-07-05 13.1 17.4 10.1--- 6.3 3.3---- 0.0------------
1961-07-04 18.6 24.0 15.6--- 6.3 2.7---- 4.6------------
1961-07-03 23.0 30.5 9.5--- 2.0 2.3---- 1.2------------
1961-07-02 21.3 29.0 9.5--- 0.0 2.3---- 0.0------------
1961-07-01 15.6 24.0 5.4--- 2.7 1.7---- 0.0------------
1961-06-30 17.7 23.0 8.0--- 0.0 2.7---- 0.0------------
1961-06-29 14.3 18.4 8.2--- 5.7 2.7---- 0.4------------
1961-06-28 13.8 20.0 11.1--- 6.0 3.0---- 5.9------------
1961-06-27 22.5 32.5 11.7--- 5.7 3.0---- 13.5------------
1961-06-26 19.6 28.0 14.6--- 0.0 2.3---- 0.0------------
1961-06-25 20.0 25.5 11.6--- 3.7 4.0---- 0.0------------
1961-06-24 16.3 21.0 10.6--- 6.3 3.7---- 0.0------------
1961-06-23 17.0 23.5 12.7--- 4.0 2.3---- 0.0------------
1961-06-22 15.4 21.0 7.5--- 2.7 2.3---- 2.6------------
1961-06-21 13.8 20.5 6.7--- 6.0 2.7---- 4.8------------
1961-06-20 12.7 18.4 9.0--- 2.3 3.7---- 0.0------------
1961-06-19 16.0 21.5 12.6--- 2.7 3.3---- 0.0------------
1961-06-18 19.2 25.0 14.6--- 6.0 1.7---- 0.5------------
1961-06-17 16.0 21.5 10.6--- 7.3 3.7---- 0.2------------
1961-06-16 13.7 15.9 11.1--- 8.0 3.0---- 7.1------------
479.8 ms

 

Źródłem pochodzenia danych jest Instytut Meteorologii i Gospodarki Wodnej – Państwowy Instytut Badawczy. Dane Instytutu Meteorologii i Gospodarki Wodnej – Państwowego Instytutu Badawczego zostały przetworzone.

Dane źródłowe można odnaleźć na stronie https://dane.imgw.pl